createdAt,value
2019-02-26T00:03:44.727Z,29.87
2019-02-26T00:06:13.208Z,28.73
2019-02-26T00:08:41.710Z,31.10
2019-02-26T00:11:10.827Z,29.95
2019-02-26T00:13:39.410Z,27.52
2019-02-26T00:16:10.554Z,29.35
2019-02-26T00:18:38.195Z,30.15
2019-02-26T00:21:06.831Z,31.62
2019-02-26T00:23:35.321Z,29.75
2019-02-26T00:26:03.872Z,29.27
2019-02-26T00:28:34.051Z,25.68
2019-02-26T00:31:03.782Z,29.23
2019-02-26T00:33:32.839Z,28.55
2019-02-26T00:36:01.326Z,32.25
2019-02-26T00:38:30.287Z,28.07
2019-02-26T00:41:02.191Z,32.17
2019-02-26T00:43:32.336Z,27.87
2019-02-26T00:46:05.480Z,29.70
2019-02-26T00:48:38.395Z,28.67
2019-02-26T00:51:06.580Z,30.57
2019-02-26T00:53:35.066Z,31.70
2019-02-26T00:56:05.573Z,30.62
2019-02-26T00:58:37.076Z,30.35
2019-02-26T01:01:08.248Z,29.87
2019-02-26T01:03:35.750Z,30.23
2019-02-26T01:06:08.004Z,31.45
2019-02-26T01:08:37.947Z,31.12
2019-02-26T01:11:08.262Z,31.48
2019-02-26T01:13:37.076Z,31.65
2019-02-26T01:16:05.561Z,32.85
2019-02-26T01:18:34.148Z,33.33
2019-02-26T01:21:04.320Z,32.88
2019-02-26T01:23:32.914Z,35.90
2019-02-26T01:26:01.452Z,33.73
2019-02-26T01:28:29.956Z,34.05
2019-02-26T01:31:03.127Z,34.75
2019-02-26T01:33:32.165Z,35.73
2019-02-26T01:36:02.675Z,31.60
2019-02-26T01:39:11.240Z,32.33
2019-02-26T01:41:41.404Z,32.28
2019-02-26T01:44:08.867Z,34.67
2019-02-26T01:46:38.983Z,37.83
2019-02-26T01:49:07.667Z,35.03
2019-02-26T01:51:36.167Z,31.15
2019-02-26T01:54:05.356Z,29.30
2019-02-26T01:56:36.480Z,27.27
2019-02-26T01:59:05.351Z,31.87
2019-02-26T02:01:35.210Z,29.72
2019-02-26T02:04:03.840Z,29.15
2019-02-26T02:06:34.378Z,29.63
2019-02-26T02:09:02.532Z,30.10
2019-02-26T02:11:33.486Z,27.55
2019-02-26T02:14:04.229Z,30.77
2019-02-26T02:16:33.639Z,34.73
2019-02-26T02:19:02.115Z,35.50
2019-02-26T02:21:33.799Z,34.33
2019-02-26T02:24:02.757Z,32.75
2019-02-26T02:26:31.307Z,28.02
2019-02-26T02:28:59.789Z,25.77
2019-02-26T02:31:31.249Z,24.40
2019-02-26T02:33:58.484Z,24.07
2019-02-26T02:36:27.054Z,29.07
2019-02-26T02:38:55.531Z,21.62
2019-02-26T02:41:24.072Z,26.93
2019-02-26T02:43:52.634Z,28.32
2019-02-26T02:46:22.381Z,25.52
2019-02-26T02:48:51.106Z,29.65
2019-02-26T02:51:19.635Z,32.17
2019-02-26T02:53:50.478Z,29.95
2019-02-26T02:56:18.326Z,29.82
2019-02-26T02:58:49.000Z,28.47
2019-02-26T03:01:19.554Z,31.95
2019-02-26T03:03:47.721Z,29.90
2019-02-26T03:06:18.487Z,33.33
2019-02-26T03:08:48.000Z,29.67
2019-02-26T03:11:17.267Z,33.38
2019-02-26T03:13:47.946Z,36.10
2019-02-26T03:16:18.728Z,39.67
2019-02-26T03:18:46.173Z,35.78
2019-02-26T03:21:16.782Z,34.75
2019-02-26T03:23:46.753Z,29.75
2019-02-26T03:26:17.667Z,28.95
2019-02-26T03:28:47.983Z,29.23
2019-02-26T03:31:15.836Z,31.17
2019-02-26T03:33:44.312Z,30.37
2019-02-26T03:36:14.107Z,27.77
2019-02-26T03:38:44.037Z,27.98
2019-02-26T03:41:13.223Z,29.95
2019-02-26T03:43:42.133Z,22.52
2019-02-26T03:46:10.647Z,26.68
2019-02-26T03:48:40.662Z,28.90
2019-02-26T03:51:09.171Z,25.82
2019-02-26T03:53:39.129Z,26.77
2019-02-26T03:56:11.719Z,26.97
2019-02-26T03:58:40.301Z,27.35
2019-02-26T04:01:10.942Z,25.25
2019-02-26T04:03:42.292Z,26.90
2019-02-26T04:06:12.063Z,27.93
2019-02-26T04:08:42.152Z,27.75
2019-02-26T04:11:10.335Z,29.05
2019-02-26T04:13:41.029Z,27.77
2019-02-26T04:16:09.383Z,25.00
2019-02-26T04:18:37.991Z,25.37
2019-02-26T04:21:09.451Z,26.10
2019-02-26T04:23:42.131Z,22.40
2019-02-26T04:26:32.249Z,28.67
2019-02-26T04:29:37.882Z,25.88
2019-02-26T04:32:18.928Z,25.27
2019-02-26T04:34:52.001Z,27.75
2019-02-26T04:37:53.255Z,29.63
2019-02-26T04:40:45.463Z,32.67
2019-02-26T04:43:55.694Z,36.90
2019-02-26T04:46:48.514Z,40.92
2019-02-26T04:49:18.525Z,44.25
2019-02-26T04:51:48.377Z,45.03
2019-02-26T04:54:21.253Z,41.85
2019-02-26T04:56:50.816Z,31.23
2019-02-26T04:59:17.798Z,24.57
2019-02-26T05:01:49.043Z,24.47
2019-02-26T05:04:16.733Z,21.35
2019-02-26T05:06:45.254Z,25.27
2019-02-26T05:09:13.771Z,26.42
2019-02-26T05:11:42.238Z,28.27
2019-02-26T05:14:11.732Z,35.40
2019-02-26T05:16:40.924Z,34.00
2019-02-26T05:19:10.666Z,31.33
2019-02-26T05:21:39.723Z,37.15
2019-02-26T05:24:08.225Z,41.53
2019-02-26T05:26:36.688Z,39.67
2019-02-26T05:29:07.138Z,28.20
2019-02-26T05:31:37.676Z,26.68
2019-02-26T05:34:05.809Z,26.42
2019-02-26T05:36:36.846Z,29.87
2019-02-26T05:39:06.787Z,28.90
2019-02-26T05:41:35.253Z,30.82
2019-02-26T05:44:07.163Z,31.07
2019-02-26T05:46:33.984Z,32.17
2019-02-26T05:49:03.555Z,34.83
2019-02-26T05:51:35.149Z,35.33
2019-02-26T05:54:07.780Z,31.17
2019-02-26T05:56:34.161Z,32.08
2019-02-26T05:59:07.444Z,28.73
2019-02-26T06:01:36.736Z,35.70
2019-02-26T06:04:07.705Z,25.95
2019-02-26T06:06:35.480Z,27.87
2019-02-26T06:09:07.564Z,29.65
2019-02-26T06:11:39.072Z,31.62
2019-02-26T06:14:27.399Z,28.10
2019-02-26T06:16:55.778Z,29.25
2019-02-26T06:19:41.713Z,31.20
2019-02-26T06:22:14.485Z,35.63
2019-02-26T06:24:43.652Z,36.75
2019-02-26T06:27:15.391Z,35.68
2019-02-26T06:29:42.410Z,32.98
2019-02-26T06:32:13.480Z,40.12
2019-02-26T06:34:41.965Z,37.50
2019-02-26T06:37:35.937Z,32.53
2019-02-26T06:40:07.493Z,27.07
2019-02-26T06:42:38.585Z,32.00
2019-02-26T06:45:13.270Z,31.48
2019-02-26T06:47:41.467Z,36.50
2019-02-26T06:50:13.178Z,34.85
2019-02-26T06:52:42.897Z,35.13
2019-02-26T06:55:12.911Z,39.98
2019-02-26T06:57:44.015Z,37.73
2019-02-26T07:00:16.807Z,41.10
2019-02-26T07:02:46.172Z,36.17
2019-02-26T07:05:15.405Z,39.90
2019-02-26T07:07:43.933Z,37.65
2019-02-26T07:10:18.519Z,31.25
2019-02-26T07:12:48.331Z,31.73
2019-02-26T07:15:16.581Z,32.85
2019-02-26T07:17:45.918Z,36.55
2019-02-26T07:20:15.026Z,39.30
2019-02-26T07:22:44.632Z,39.03
2019-02-26T07:25:15.963Z,39.45
2019-02-26T07:27:44.013Z,32.83
2019-02-26T07:30:12.868Z,38.25
2019-02-26T07:32:45.054Z,40.33
2019-02-26T07:35:16.790Z,36.75
2019-02-26T07:37:45.368Z,35.58
2019-02-26T07:40:16.052Z,38.40
2019-02-26T07:42:46.624Z,40.50
2019-02-26T07:45:19.386Z,38.08
2019-02-26T07:47:49.158Z,37.65
2019-02-26T07:50:21.404Z,38.75
2019-02-26T07:52:52.021Z,40.67
2019-02-26T07:55:20.103Z,41.25
2019-02-26T07:57:50.765Z,44.20
2019-02-26T08:00:21.697Z,44.65
2019-02-26T08:02:52.027Z,43.35
2019-02-26T08:05:21.306Z,44.50
2019-02-26T08:07:52.141Z,44.15
2019-02-26T08:10:21.297Z,43.50
2019-02-26T08:12:49.880Z,44.90
2019-02-26T08:15:18.496Z,46.23
2019-02-26T08:17:53.216Z,47.23
2019-02-26T08:20:19.322Z,45.40
2019-02-26T08:22:49.547Z,48.05
2019-02-26T08:25:18.031Z,47.00
2019-02-26T08:27:52.164Z,48.58
2019-02-26T08:30:23.509Z,46.92
2019-02-26T08:32:54.268Z,47.48
2019-02-26T08:35:24.876Z,46.48
2019-02-26T08:37:53.760Z,48.48
2019-02-26T08:40:22.307Z,49.38
2019-02-26T08:42:50.866Z,49.88
2019-02-26T08:45:23.042Z,50.00
2019-02-26T08:47:51.793Z,50.35
2019-02-26T08:50:22.060Z,49.85
2019-02-26T08:52:53.097Z,48.17
2019-02-26T08:55:23.969Z,49.93
2019-02-26T08:57:53.968Z,49.30
2019-02-26T09:00:23.279Z,50.78
2019-02-26T09:02:56.429Z,49.90
2019-02-26T09:05:23.992Z,48.02
2019-02-26T09:07:52.244Z,50.70
2019-02-26T09:10:23.274Z,49.77
2019-02-26T09:12:52.550Z,49.80
2019-02-26T09:15:22.074Z,51.20
2019-02-26T09:17:50.564Z,51.20
2019-02-26T09:20:20.595Z,51.05
2019-02-26T09:22:53.451Z,52.62
2019-02-26T09:25:23.426Z,51.85
2019-02-26T09:27:51.236Z,51.15
2019-02-26T09:30:20.157Z,51.83
2019-02-26T09:32:48.802Z,50.60
2019-02-26T09:35:27.034Z,50.20
2019-02-26T09:37:54.962Z,49.70
2019-02-26T09:40:23.507Z,49.77
2019-02-26T09:42:55.205Z,51.95
2019-02-26T09:45:26.888Z,51.15
2019-02-26T09:47:57.954Z,50.63
2019-02-26T09:50:27.499Z,50.60
2019-02-26T09:52:58.989Z,50.83
2019-02-26T09:55:26.368Z,51.10
2019-02-26T09:57:56.515Z,53.42
2019-02-26T10:00:27.975Z,52.13
2019-02-26T10:02:55.356Z,52.75
2019-02-26T10:05:23.849Z,51.25
2019-02-26T10:07:54.987Z,50.70
2019-02-26T10:10:27.648Z,52.95
2019-02-26T10:12:56.590Z,52.62
2019-02-26T10:15:24.223Z,52.35
2019-02-26T10:17:52.758Z,49.05
2019-02-26T10:20:28.625Z,51.15
2019-02-26T10:22:59.992Z,50.33
2019-02-26T10:25:28.552Z,44.83
2019-02-26T10:28:03.152Z,42.13
2019-02-26T10:30:31.430Z,45.12
2019-02-26T10:33:02.816Z,38.45
2019-02-26T10:35:33.346Z,30.95
2019-02-26T10:38:03.620Z,33.42
2019-02-26T10:40:35.603Z,34.73
2019-02-26T10:43:01.507Z,34.63
2019-02-26T10:45:36.279Z,36.40
2019-02-26T10:48:01.978Z,35.88
2019-02-26T10:50:32.008Z,36.53
2019-02-26T10:53:07.197Z,37.10
2019-02-26T10:55:38.039Z,42.05
2019-02-26T10:58:06.809Z,39.58
2019-02-26T11:00:34.769Z,38.53
2019-02-26T11:03:02.082Z,38.85
2019-02-26T11:05:30.686Z,38.88
2019-02-26T11:08:02.146Z,73.50
2019-02-26T11:10:29.503Z,54.38
2019-02-26T11:12:59.395Z,58.60
2019-02-26T11:15:32.722Z,40.63
2019-02-26T11:17:58.536Z,38.67
2019-02-26T11:20:30.097Z,38.95
2019-02-26T11:22:57.512Z,38.70
2019-02-26T11:25:27.460Z,36.63
2019-02-26T11:27:56.271Z,34.27
2019-02-26T11:30:29.515Z,33.75
2019-02-26T11:33:02.068Z,35.85
2019-02-26T11:35:28.435Z,35.80
2019-02-26T11:37:57.757Z,34.67
2019-02-26T11:40:30.245Z,37.65
2019-02-26T11:42:59.769Z,36.50
2019-02-26T11:45:27.959Z,36.15
2019-02-26T11:48:00.861Z,34.88
2019-02-26T11:50:28.228Z,33.98
2019-02-26T11:52:59.965Z,31.15
2019-02-26T11:55:31.384Z,28.45
2019-02-26T11:57:58.717Z,29.80
2019-02-26T12:00:49.673Z,29.00
2019-02-26T12:03:16.002Z,32.38
2019-02-26T12:05:44.635Z,30.37
2019-02-26T12:08:16.325Z,33.10
2019-02-26T12:10:43.384Z,31.42
2019-02-26T12:13:14.072Z,30.65
2019-02-26T12:15:42.866Z,29.20
2019-02-26T12:18:14.957Z,27.75
2019-02-26T12:20:45.991Z,33.85
2019-02-26T12:23:16.147Z,29.15
2019-02-26T12:25:43.646Z,29.98
2019-02-26T12:28:13.698Z,30.12
2019-02-26T12:30:46.208Z,28.92
2019-02-26T12:33:14.826Z,30.27
2019-02-26T12:35:43.828Z,31.68
2019-02-26T12:38:18.281Z,29.87
2019-02-26T12:40:44.645Z,27.48
2019-02-26T12:43:16.271Z,25.40
2019-02-26T12:45:44.823Z,23.65
2019-02-26T12:48:16.206Z,27.10
2019-02-26T12:50:43.732Z,29.82
2019-02-26T12:53:15.218Z,26.35
2019-02-26T12:55:42.876Z,27.17
2019-02-26T12:58:14.565Z,28.80
2019-02-26T13:00:42.322Z,24.92
2019-02-26T13:03:12.791Z,21.52
2019-02-26T13:05:44.945Z,20.48
2019-02-26T13:08:13.419Z,21.37
2019-02-26T13:10:46.410Z,21.60
2019-02-26T13:13:12.431Z,22.67
2019-02-26T13:15:40.995Z,23.50
2019-02-26T13:18:10.375Z,24.82
2019-02-26T13:20:38.861Z,22.75
2019-02-26T13:23:17.254Z,23.87
2019-02-26T13:25:37.624Z,24.63
2019-02-26T13:28:06.187Z,24.52
2019-02-26T13:30:34.669Z,23.52
2019-02-26T13:33:05.464Z,23.98
2019-02-26T13:35:33.434Z,23.10
2019-02-26T13:38:05.741Z,24.05
2019-02-26T13:40:38.654Z,23.85
2019-02-26T13:43:08.105Z,23.52
2019-02-26T13:45:36.772Z,24.67
2019-02-26T13:48:29.591Z,21.93
2019-02-26T13:50:58.653Z,22.98
2019-02-26T13:53:27.208Z,21.87
2019-02-26T13:55:55.761Z,20.52
2019-02-26T13:58:46.987Z,21.73
2019-02-26T14:00:54.892Z,22.00
2019-02-26T14:03:23.364Z,23.12
2019-02-26T14:05:53.496Z,25.50
2019-02-26T14:08:22.038Z,24.87
2019-02-26T14:10:50.596Z,21.15
2019-02-26T14:13:19.151Z,21.07
2019-02-26T14:15:47.700Z,19.42
2019-02-26T14:18:16.338Z,17.37
2019-02-26T14:20:45.612Z,20.37
2019-02-26T14:23:14.217Z,22.85
2019-02-26T14:25:42.889Z,22.00
2019-02-26T14:28:11.383Z,23.83
2019-02-26T14:30:39.947Z,22.90
2019-02-26T14:33:08.506Z,22.40
2019-02-26T14:35:37.050Z,22.02
2019-02-26T14:38:05.880Z,19.50
2019-02-26T14:40:34.439Z,20.15
2019-02-26T14:43:03.023Z,18.73
2019-02-26T14:45:31.573Z,18.85
2019-02-26T14:48:00.083Z,18.05
2019-02-26T14:50:28.808Z,17.60
2019-02-26T14:52:57.305Z,19.02
2019-02-26T14:55:25.791Z,17.35
2019-02-26T14:57:54.259Z,18.45
2019-02-26T15:00:34.003Z,17.98
2019-02-26T15:03:02.482Z,17.87
2019-02-26T15:05:34.064Z,22.32
2019-02-26T15:08:04.078Z,22.07
2019-02-26T15:10:32.568Z,22.70
2019-02-26T15:13:01.081Z,20.52
2019-02-26T15:15:29.561Z,20.90
2019-02-26T15:17:59.676Z,21.23
2019-02-26T15:20:28.246Z,19.23
2019-02-26T15:22:58.347Z,17.82
2019-02-26T15:25:28.093Z,17.85
2019-02-26T15:28:04.625Z,18.87
2019-02-26T15:30:29.892Z,19.42
2019-02-26T15:32:58.347Z,20.17
2019-02-26T15:35:27.049Z,21.33
2019-02-26T15:37:55.530Z,18.87
2019-02-26T15:40:24.446Z,18.60
2019-02-26T15:42:56.183Z,18.60
2019-02-26T15:45:24.269Z,21.57
2019-02-26T15:47:53.000Z,20.75
2019-02-26T15:50:22.032Z,19.67
2019-02-26T15:52:52.952Z,21.42
2019-02-26T15:55:29.203Z,25.37
2019-02-26T15:58:03.002Z,23.75
2019-02-26T16:00:28.486Z,22.37
2019-02-26T16:02:59.392Z,24.52
2019-02-26T16:05:30.586Z,22.95
2019-02-26T16:07:59.084Z,24.25
2019-02-26T16:10:27.560Z,24.23
2019-02-26T16:12:57.701Z,21.87
2019-02-26T16:15:26.375Z,23.05
2019-02-26T16:17:58.095Z,22.95
2019-02-26T16:20:25.123Z,23.85
2019-02-26T16:22:53.625Z,24.37
2019-02-26T16:25:23.529Z,27.20
2019-02-26T16:27:53.789Z,25.00
2019-02-26T16:30:27.092Z,26.55
2019-02-26T16:32:55.818Z,25.15
2019-02-26T16:35:25.463Z,25.88
2019-02-26T16:37:55.835Z,27.52
2019-02-26T16:40:24.367Z,28.77
2019-02-26T16:42:52.931Z,27.35
2019-02-26T16:45:27.430Z,29.77
2019-02-26T16:47:57.599Z,30.95
2019-02-26T16:50:27.906Z,29.42
2019-02-26T16:52:57.923Z,31.33
2019-02-26T16:55:29.648Z,32.00
2019-02-26T16:58:02.258Z,30.15
2019-02-26T17:00:29.817Z,30.68
2019-02-26T17:03:00.974Z,29.87
2019-02-26T17:05:29.101Z,30.55
2019-02-26T17:07:59.718Z,31.85
2019-02-26T17:10:30.408Z,28.12
2019-02-26T17:13:01.866Z,25.62
2019-02-26T17:15:30.871Z,27.07
2019-02-26T17:17:59.472Z,23.87
2019-02-26T17:20:28.037Z,22.52
2019-02-26T17:22:56.512Z,25.57
2019-02-26T17:25:28.529Z,24.85
2019-02-26T17:27:55.289Z,23.12
2019-02-26T17:30:24.645Z,22.70
2019-02-26T17:32:53.559Z,24.27
2019-02-26T17:35:22.123Z,23.12
2019-02-26T17:37:50.724Z,24.15
2019-02-26T17:40:20.981Z,24.05
2019-02-26T17:42:51.847Z,26.70
2019-02-26T17:45:25.819Z,28.15
2019-02-26T17:47:56.501Z,28.83
2019-02-26T17:50:33.121Z,26.05
2019-02-26T17:53:01.591Z,25.15
2019-02-26T17:55:31.285Z,24.52
2019-02-26T17:58:01.331Z,26.25
2019-02-26T18:00:31.955Z,24.80
2019-02-26T18:03:06.379Z,25.82
2019-02-26T18:05:33.651Z,25.62
2019-02-26T18:08:02.164Z,26.70
2019-02-26T18:10:30.726Z,25.92
2019-02-26T18:12:59.270Z,25.48
2019-02-26T18:15:27.898Z,27.55
2019-02-26T18:17:58.417Z,25.52
2019-02-26T18:20:28.697Z,27.75
2019-02-26T18:22:59.884Z,25.90
2019-02-26T18:25:28.024Z,27.05
2019-02-26T18:27:59.236Z,26.23
2019-02-26T18:30:28.984Z,25.35
2019-02-26T18:32:58.922Z,26.97
2019-02-26T18:35:29.328Z,27.25
2019-02-26T18:37:57.871Z,30.37
2019-02-26T18:40:28.317Z,29.40
2019-02-26T18:42:56.629Z,27.00
2019-02-26T18:45:30.911Z,26.50
2019-02-26T18:47:59.378Z,27.42
2019-02-26T18:50:29.510Z,25.92
2019-02-26T18:52:58.675Z,25.60
2019-02-26T18:55:28.839Z,26.55
2019-02-26T18:57:57.854Z,26.65
2019-02-26T19:00:29.472Z,27.35
2019-02-26T19:02:58.117Z,28.47
2019-02-26T19:05:26.656Z,25.08
2019-02-26T19:07:55.271Z,29.35
2019-02-26T19:10:23.834Z,28.40
2019-02-26T19:12:52.406Z,27.00
2019-02-26T19:15:37.057Z,29.30
2019-02-26T19:18:11.587Z,26.95
2019-02-26T19:20:44.364Z,29.45
2019-02-26T19:23:12.954Z,28.60
2019-02-26T19:25:42.146Z,27.75
2019-02-26T19:28:10.667Z,26.25
2019-02-26T19:30:43.252Z,26.62
2019-02-26T19:33:11.747Z,25.20
2019-02-26T19:35:40.671Z,27.45
2019-02-26T19:38:09.132Z,27.00
2019-02-26T19:40:43.191Z,29.27
2019-02-26T19:43:11.741Z,29.35
2019-02-26T19:45:44.756Z,28.30
2019-02-26T19:48:14.370Z,27.70
2019-02-26T19:50:45.442Z,27.98
2019-02-26T19:53:13.067Z,27.80
2019-02-26T19:55:48.792Z,27.48
2019-02-26T19:58:14.811Z,28.15
2019-02-26T20:00:46.852Z,29.90
2019-02-26T20:03:15.038Z,27.50
2019-02-26T20:05:46.238Z,29.18
2019-02-26T20:08:13.875Z,29.70
2019-02-26T20:10:47.872Z,30.50
2019-02-26T20:13:14.292Z,28.52
2019-02-26T20:15:42.768Z,27.50
2019-02-26T20:18:20.218Z,28.42
2019-02-26T20:20:45.721Z,28.12
2019-02-26T20:23:12.346Z,29.55
2019-02-26T20:25:42.770Z,29.98
2019-02-26T20:28:11.164Z,32.53
2019-02-26T20:30:39.643Z,32.20
2019-02-26T20:33:08.130Z,30.80
2019-02-26T20:35:36.711Z,30.92
2019-02-26T20:38:05.243Z,29.77
2019-02-26T20:40:38.206Z,29.57
2019-02-26T20:43:06.701Z,30.40
2019-02-26T20:45:35.556Z,26.75
2019-02-26T20:48:04.903Z,28.02
2019-02-26T20:50:33.581Z,27.48
2019-02-26T20:53:05.972Z,29.67
2019-02-26T20:55:34.040Z,29.72
2019-02-26T20:58:02.531Z,29.37
2019-02-26T21:00:30.998Z,27.15
2019-02-26T21:02:59.545Z,28.32
2019-02-26T21:05:28.175Z,27.93
2019-02-26T21:07:58.839Z,29.35
2019-02-26T21:10:27.132Z,29.23
2019-02-26T21:12:55.571Z,29.05
2019-02-26T21:15:25.484Z,28.95
2019-02-26T21:17:57.684Z,28.15
2019-02-26T21:20:24.334Z,25.12
2019-02-26T21:22:54.860Z,28.05
2019-02-26T21:25:23.419Z,28.05
2019-02-26T21:27:53.632Z,31.23
2019-02-26T21:30:23.970Z,29.67
2019-02-26T21:32:52.529Z,27.85
2019-02-26T21:35:25.109Z,29.20
2019-02-26T21:37:56.668Z,24.95
2019-02-26T21:40:25.180Z,27.60
2019-02-26T21:42:56.550Z,28.50
2019-02-26T21:45:25.082Z,29.12
2019-02-26T21:47:53.572Z,28.17
2019-02-26T21:50:22.979Z,28.40
2019-02-26T21:52:59.541Z,27.73
2019-02-26T21:55:21.890Z,29.52
2019-02-26T21:57:54.529Z,28.85
2019-02-26T22:00:21.751Z,27.85
2019-02-26T22:02:52.536Z,27.13
2019-02-26T22:05:20.504Z,26.12
2019-02-26T22:07:52.159Z,27.30
2019-02-26T22:10:22.468Z,26.87
2019-02-26T22:12:51.036Z,29.57
2019-02-26T22:15:19.568Z,28.17
2019-02-26T22:17:48.138Z,26.57
2019-02-26T22:20:23.717Z,27.60
2019-02-26T22:22:49.166Z,28.32
2019-02-26T22:25:17.734Z,27.55
2019-02-26T22:27:47.730Z,27.25
2019-02-26T22:30:21.655Z,26.77
2019-02-26T22:32:48.094Z,26.62
2019-02-26T22:35:16.656Z,27.77
2019-02-26T22:37:45.233Z,29.23
2019-02-26T22:40:14.733Z,29.50
2019-02-26T22:42:43.312Z,25.40
2019-02-26T22:45:15.863Z,26.50
2019-02-26T22:47:44.674Z,23.30
2019-02-26T22:50:36.644Z,29.12
2019-02-26T22:53:05.355Z,29.02
2019-02-26T22:55:33.810Z,29.40
2019-02-26T22:58:03.289Z,30.43
2019-02-26T23:00:51.401Z,27.52
2019-02-26T23:03:21.665Z,29.07
2019-02-26T23:05:50.264Z,28.47
2019-02-26T23:08:18.905Z,26.10
2019-02-26T23:10:47.520Z,29.02
2019-02-26T23:13:17.457Z,28.35
2019-02-26T23:15:47.811Z,28.98
2019-02-26T23:18:19.527Z,29.02
2019-02-26T23:20:48.355Z,28.27
2019-02-26T23:23:16.970Z,21.10
2019-02-26T23:25:45.512Z,25.10
2019-02-26T23:28:14.125Z,27.07
2019-02-26T23:30:42.813Z,25.23
2019-02-26T23:33:14.900Z,26.05
2019-02-26T23:35:41.707Z,25.25
2019-02-26T23:38:10.346Z,26.35
2019-02-26T23:40:38.894Z,27.35
2019-02-26T23:43:11.801Z,27.32
2019-02-26T23:45:37.787Z,28.15
2019-02-26T23:48:08.029Z,27.62
2019-02-26T23:50:36.793Z,24.75
2019-02-26T23:53:05.347Z,28.12
2019-02-26T23:55:33.887Z,26.87
2019-02-26T23:58:02.443Z,26.05
